createdAt,value
2019-05-26T00:00:02.516Z,52.20
2019-05-26T00:05:43.705Z,52.17
2019-05-26T00:11:00.695Z,52.27
2019-05-26T00:16:09.980Z,52.54
2019-05-26T00:21:22.879Z,52.54
2019-05-26T00:26:36.416Z,52.68
2019-05-26T00:31:44.653Z,52.65
2019-05-26T00:36:56.457Z,52.58
2019-05-26T00:42:09.934Z,52.76
2019-05-26T00:47:23.618Z,52.91
2019-05-26T00:52:33.542Z,52.91
2019-05-26T00:57:46.520Z,52.91
2019-05-26T01:03:04.467Z,53.26
2019-05-26T01:08:21.508Z,53.25
2019-05-26T01:13:31.591Z,53.10
2019-05-26T01:18:42.573Z,53.09
2019-05-26T01:23:52.186Z,53.31
2019-05-26T01:29:04.537Z,53.59
2019-05-26T01:34:15.076Z,53.75
2019-05-26T01:39:30.774Z,53.72
2019-05-26T01:44:42.473Z,53.53
2019-05-26T01:50:13.419Z,53.86
2019-05-26T01:55:25.216Z,53.79
2019-05-26T02:00:37.210Z,53.51
2019-05-26T02:05:47.889Z,53.50
2019-05-26T02:10:58.306Z,53.28
2019-05-26T02:16:42.345Z,53.40
2019-05-26T02:21:57.395Z,53.65
2019-05-26T02:27:09.280Z,53.66
2019-05-26T02:32:24.531Z,53.88
2019-05-26T02:37:34.583Z,54.03
2019-05-26T02:42:46.930Z,54.17
2019-05-26T02:47:52.948Z,54.28
2019-05-26T02:53:29.662Z,54.49
2019-05-26T02:58:38.764Z,54.63
2019-05-26T03:03:48.989Z,54.80
2019-05-26T03:09:20.983Z,54.41
2019-05-26T03:14:15.885Z,52.89
2019-05-26T03:19:34.895Z,52.86
2019-05-26T03:24:49.029Z,52.98
2019-05-26T03:30:09.636Z,52.89
2019-05-26T03:35:20.452Z,53.13
2019-05-26T03:40:31.730Z,53.23
2019-05-26T03:46:23.246Z,53.46
2019-05-26T03:51:33.460Z,53.18
2019-05-26T03:56:43.505Z,52.77
2019-05-26T04:01:58.493Z,52.47
2019-05-26T04:07:06.730Z,52.12
2019-05-26T04:12:20.558Z,52.09
2019-05-26T04:17:29.671Z,52.07
2019-05-26T04:22:42.642Z,51.96
2019-05-26T04:27:59.897Z,51.81
2019-05-26T04:33:13.772Z,51.92
2019-05-26T04:38:27.340Z,52.01
2019-05-26T04:43:36.578Z,51.96
2019-05-26T04:48:45.691Z,51.74
2019-05-26T04:54:06.842Z,51.54
2019-05-26T04:59:15.058Z,51.25
2019-05-26T05:04:28.866Z,50.82
2019-05-26T05:09:48.345Z,50.01
2019-05-26T05:15:00.837Z,49.71
2019-05-26T05:20:17.661Z,49.54
2019-05-26T05:25:26.495Z,49.57
2019-05-26T05:30:44.479Z,49.77
2019-05-26T05:35:56.465Z,49.17
2019-05-26T05:41:07.921Z,48.75
2019-05-26T05:46:19.487Z,48.33
2019-05-26T05:51:29.678Z,48.06
2019-05-26T05:56:51.536Z,48.06
2019-05-26T06:02:01.519Z,47.88
2019-05-26T06:07:13.993Z,47.48
2019-05-26T06:12:26.838Z,47.00
2019-05-26T06:17:34.797Z,47.03
2019-05-26T06:22:53.153Z,47.37
2019-05-26T06:28:22.913Z,48.06
2019-05-26T06:33:35.975Z,47.41
2019-05-26T06:38:53.013Z,47.12
2019-05-26T06:44:00.486Z,46.63
2019-05-26T06:49:18.036Z,46.84
2019-05-26T06:54:28.001Z,46.26
2019-05-26T06:59:49.920Z,46.11
2019-05-26T07:05:04.201Z,46.09
2019-05-26T07:10:23.948Z,45.82
2019-05-26T07:15:53.950Z,45.50
2019-05-26T07:21:03.909Z,45.31
2019-05-26T07:26:14.184Z,44.99
2019-05-26T07:31:25.922Z,44.49
2019-05-26T07:36:35.944Z,45.32
2019-05-26T07:41:43.811Z,45.12
2019-05-26T07:46:55.114Z,44.34
2019-05-26T07:52:10.586Z,43.66
2019-05-26T07:57:21.020Z,43.77
2019-05-26T08:02:33.538Z,42.87
2019-05-26T08:07:44.674Z,42.81
2019-05-26T08:12:55.769Z,42.02
2019-05-26T08:18:05.958Z,41.88
2019-05-26T08:23:18.318Z,41.44
2019-05-26T08:28:31.049Z,41.19
2019-05-26T08:33:44.149Z,41.52
2019-05-26T08:39:02.824Z,40.85
2019-05-26T08:44:17.000Z,40.04
2019-05-26T08:49:28.877Z,40.87
2019-05-26T08:54:42.725Z,41.12
2019-05-26T08:59:58.394Z,40.54
2019-05-26T09:05:11.325Z,40.68
2019-05-26T09:10:27.145Z,40.75
2019-05-26T09:15:38.981Z,40.22
2019-05-26T09:20:51.915Z,39.37
2019-05-26T09:26:09.887Z,39.80
2019-05-26T09:31:24.622Z,39.00
2019-05-26T09:36:36.335Z,38.79
2019-05-26T09:41:54.070Z,38.95
2019-05-26T09:47:11.953Z,38.88
2019-05-26T09:52:24.852Z,38.83
2019-05-26T09:57:38.794Z,38.79
2019-05-26T10:02:54.551Z,38.76
2019-05-26T10:08:06.797Z,38.60
2019-05-26T10:13:38.784Z,37.90
2019-05-26T10:19:12.410Z,37.92
2019-05-26T10:24:34.366Z,37.79
2019-05-26T10:29:48.995Z,37.82
2019-05-26T10:35:05.886Z,37.53
2019-05-26T10:40:22.379Z,36.97
2019-05-26T10:45:44.223Z,37.31
2019-05-26T10:50:57.055Z,36.96
2019-05-26T10:56:14.046Z,36.66
2019-05-26T11:01:26.007Z,35.95
2019-05-26T11:06:43.139Z,36.75
2019-05-26T11:11:59.956Z,37.05
2019-05-26T11:17:13.840Z,37.72
2019-05-26T11:22:27.408Z,38.44
2019-05-26T11:27:38.578Z,39.48
2019-05-26T11:32:59.866Z,39.93
2019-05-26T11:38:07.216Z,40.22
2019-05-26T11:43:25.687Z,40.07
2019-05-26T11:48:59.931Z,40.47
2019-05-26T11:54:14.827Z,40.47
2019-05-26T11:59:36.504Z,40.61
2019-05-26T12:04:50.289Z,40.69
2019-05-26T12:10:03.100Z,39.96
2019-05-26T12:15:14.289Z,40.05
2019-05-26T12:20:25.777Z,39.68
2019-05-26T12:25:36.727Z,40.49
2019-05-26T12:30:46.736Z,39.19
2019-05-26T12:36:05.989Z,38.87
2019-05-26T12:41:16.965Z,39.45
2019-05-26T12:46:27.234Z,39.00
2019-05-26T12:51:40.916Z,38.47
2019-05-26T12:57:12.540Z,38.05
2019-05-26T13:02:30.986Z,37.59
2019-05-26T13:07:48.111Z,37.47
2019-05-26T13:12:58.250Z,37.31
2019-05-26T13:18:12.883Z,37.28
2019-05-26T13:23:23.468Z,36.91
2019-05-26T13:28:36.733Z,38.03
2019-05-26T13:33:52.249Z,39.07
2019-05-26T13:39:05.736Z,39.47
2019-05-26T13:44:17.904Z,39.51
2019-05-26T13:49:41.574Z,39.75
2019-05-26T13:54:54.427Z,39.62
2019-05-26T14:00:25.204Z,38.01
2019-05-26T14:05:35.203Z,37.34
2019-05-26T14:10:47.716Z,36.74
2019-05-26T14:16:22.647Z,36.58
2019-05-26T14:21:34.331Z,36.30
2019-05-26T14:26:42.609Z,36.10
2019-05-26T14:31:53.413Z,36.22
2019-05-26T14:37:04.470Z,36.67
2019-05-26T14:42:19.427Z,36.63
2019-05-26T14:47:32.039Z,35.77
2019-05-26T14:52:54.883Z,35.97
2019-05-26T14:58:15.723Z,36.14
2019-05-26T15:03:20.975Z,36.31
2019-05-26T15:08:35.069Z,36.32
2019-05-26T15:13:45.968Z,36.01
2019-05-26T15:19:01.319Z,36.29
2019-05-26T15:24:13.989Z,36.49
2019-05-26T15:29:27.978Z,36.17
2019-05-26T15:34:38.338Z,36.68
2019-05-26T15:40:11.704Z,36.58
2019-05-26T15:45:22.475Z,36.96
2019-05-26T15:50:31.501Z,38.01
2019-05-26T15:55:40.025Z,38.38
2019-05-26T16:00:51.298Z,38.95
2019-05-26T16:06:13.839Z,39.60
2019-05-26T16:11:27.017Z,40.19
2019-05-26T16:16:58.726Z,40.63
2019-05-26T16:27:35.316Z,40.30
2019-05-26T16:33:04.252Z,40.60
2019-05-26T16:38:14.436Z,40.25
2019-05-26T16:43:30.525Z,40.88
2019-05-26T16:48:42.521Z,41.45
2019-05-26T16:53:56.906Z,41.59
2019-05-26T16:59:08.069Z,41.27
2019-05-26T17:04:41.470Z,41.11
2019-05-26T17:10:11.739Z,41.47
2019-05-26T17:15:24.484Z,41.25
2019-05-26T17:20:34.370Z,40.91
2019-05-26T17:25:47.015Z,40.54
2019-05-26T17:31:17.588Z,40.54
2019-05-26T17:36:31.944Z,41.29
2019-05-26T17:41:42.789Z,42.30
2019-05-26T17:46:56.806Z,42.54
2019-05-26T17:52:05.253Z,42.61
2019-05-26T17:57:16.906Z,42.56
2019-05-26T18:02:27.400Z,42.79
2019-05-26T18:07:40.084Z,42.87
2019-05-26T18:13:30.250Z,42.88
2019-05-26T18:18:43.334Z,42.88
2019-05-26T18:23:54.649Z,43.10
2019-05-26T18:29:15.522Z,43.82
2019-05-26T18:34:30.858Z,44.36
2019-05-26T18:39:39.439Z,45.00
2019-05-26T18:44:52.623Z,45.08
2019-05-26T18:50:07.860Z,45.08
2019-05-26T18:55:17.909Z,45.30
2019-05-26T19:00:31.464Z,45.29
2019-05-26T19:05:43.423Z,44.88
2019-05-26T19:11:16.326Z,44.92
2019-05-26T19:16:23.386Z,44.73
2019-05-26T19:21:35.156Z,44.75
2019-05-26T19:26:47.434Z,44.31
2019-05-26T19:32:04.142Z,44.49
2019-05-26T19:37:15.400Z,43.82
2019-05-26T19:42:45.735Z,44.62
2019-05-26T19:48:00.110Z,44.76
2019-05-26T19:53:12.137Z,45.19
2019-05-26T19:58:23.080Z,45.25
2019-05-26T20:03:32.228Z,45.38
2019-05-26T20:08:49.774Z,45.51
2019-05-26T20:13:58.212Z,45.52
2019-05-26T20:19:10.247Z,45.72
2019-05-26T20:24:24.393Z,45.91
2019-05-26T20:29:40.688Z,45.86
2019-05-26T20:34:49.591Z,45.79
2019-05-26T20:40:06.544Z,45.80
2019-05-26T20:45:17.673Z,45.74
2019-05-26T20:50:30.184Z,45.84
2019-05-26T20:55:39.353Z,45.98
2019-05-26T21:00:53.322Z,46.17
2019-05-26T21:06:26.438Z,46.42
2019-05-26T21:11:38.802Z,46.70
2019-05-26T21:16:48.318Z,47.15
2019-05-26T21:22:21.939Z,47.69
2019-05-26T21:27:33.121Z,47.57
2019-05-26T21:32:43.615Z,47.39
2019-05-26T21:37:55.669Z,48.03
2019-05-26T21:43:29.333Z,50.21
2019-05-26T21:48:40.812Z,52.32
2019-05-26T21:53:49.753Z,53.58
2019-05-26T21:59:04.563Z,54.03
2019-05-26T22:04:17.219Z,54.60
2019-05-26T22:09:27.520Z,55.67
2019-05-26T22:14:36.856Z,55.65
2019-05-26T22:20:07.885Z,56.16
2019-05-26T22:25:21.523Z,56.98
2019-05-26T22:30:33.946Z,57.42
2019-05-26T22:35:46.467Z,58.44
2019-05-26T22:41:05.030Z,58.88
2019-05-26T22:46:18.409Z,59.52
2019-05-26T22:51:53.027Z,59.98
2019-05-26T22:57:02.849Z,60.57
2019-05-26T23:02:18.346Z,60.75
2019-05-26T23:07:29.619Z,60.73
2019-05-26T23:12:39.274Z,60.85
2019-05-26T23:17:51.068Z,61.02
2019-05-26T23:23:04.970Z,60.98
2019-05-26T23:28:17.994Z,60.91
2019-05-26T23:33:40.461Z,61.72
2019-05-26T23:39:00.004Z,61.21
2019-05-26T23:44:12.391Z,61.23
2019-05-26T23:49:25.424Z,61.13
2019-05-26T23:54:36.766Z,61.58
2019-05-26T23:59:49.440Z,61.50
